sensor_id;sensor_type;location;lat;lon;timestamp;pressure;altitude;pressure_sealevel;temperature
71897;BMP280;59767;51.344;12.362;2022-07-29T00:00:14;100572.31;;;18.74
71897;BMP280;59767;51.344;12.362;2022-07-29T00:03:18;100576.28;;;18.70
71897;BMP280;59767;51.344;12.362;2022-07-29T00:06:22;100573.28;;;18.73
71897;BMP280;59767;51.344;12.362;2022-07-29T00:09:26;100568.16;;;18.73
71897;BMP280;59767;51.344;12.362;2022-07-29T00:12:31;100559.53;;;18.61
71897;BMP280;59767;51.344;12.362;2022-07-29T00:15:35;100547.09;;;18.58
71897;BMP280;59767;51.344;12.362;2022-07-29T00:18:39;100547.22;;;18.63
71897;BMP280;59767;51.344;12.362;2022-07-29T00:21:43;100547.84;;;18.59
71897;BMP280;59767;51.344;12.362;2022-07-29T00:24:48;100536.63;;;18.60
71897;BMP280;59767;51.344;12.362;2022-07-29T00:27:53;100527.94;;;18.54
71897;BMP280;59767;51.344;12.362;2022-07-29T00:30:57;100512.09;;;18.57
71897;BMP280;59767;51.344;12.362;2022-07-29T00:34:01;100508.19;;;18.55
71897;BMP280;59767;51.344;12.362;2022-07-29T00:37:09;100504.25;;;18.52
71897;BMP280;59767;51.344;12.362;2022-07-29T00:40:13;100505.19;;;18.58
71897;BMP280;59767;51.344;12.362;2022-07-29T00:43:18;100507.63;;;18.46
71897;BMP280;59767;51.344;12.362;2022-07-29T00:46:22;100494.75;;;18.53
71897;BMP280;59767;51.344;12.362;2022-07-29T00:49:26;100489.47;;;18.41
71897;BMP280;59767;51.344;12.362;2022-07-29T00:52:30;100492.66;;;18.37
71897;BMP280;59767;51.344;12.362;2022-07-29T00:55:35;100484.75;;;18.38
71897;BMP280;59767;51.344;12.362;2022-07-29T00:58:39;100477.06;;;18.32
71897;BMP280;59767;51.344;12.362;2022-07-29T01:01:43;100490.09;;;18.30
71897;BMP280;59767;51.344;12.362;2022-07-29T01:04:48;100486.75;;;18.30
71897;BMP280;59767;51.344;12.362;2022-07-29T01:07:53;100487.56;;;18.24
71897;BMP280;59767;51.344;12.362;2022-07-29T01:10:59;100480.25;;;18.21
71897;BMP280;59767;51.344;12.362;2022-07-29T01:14:05;100486.00;;;18.23
71897;BMP280;59767;51.344;12.362;2022-07-29T01:17:12;100486.41;;;18.20
71897;BMP280;59767;51.344;12.362;2022-07-29T01:20:25;100479.50;;;18.20
71897;BMP280;59767;51.344;12.362;2022-07-29T01:23:56;100488.56;;;18.16
71897;BMP280;59767;51.344;12.362;2022-07-29T01:30:34;100481.28;;;18.13
71897;BMP280;59767;51.344;12.362;2022-07-29T01:33:42;100487.03;;;18.09
71897;BMP280;59767;51.344;12.362;2022-07-29T01:37:28;100483.84;;;18.13
71897;BMP280;59767;51.344;12.362;2022-07-29T01:40:48;100475.22;;;18.01
71897;BMP280;59767;51.344;12.362;2022-07-29T01:43:59;100470.44;;;18.05
71897;BMP280;59767;51.344;12.362;2022-07-29T01:47:10;100468.28;;;18.08
71897;BMP280;59767;51.344;12.362;2022-07-29T01:50:17;100474.63;;;18.06
71897;BMP280;59767;51.344;12.362;2022-07-29T01:53:30;100469.69;;;17.98
71897;BMP280;59767;51.344;12.362;2022-07-29T01:56:42;100464.34;;;18.06
71897;BMP280;59767;51.344;12.362;2022-07-29T01:59:48;100466.13;;;17.99
71897;BMP280;59767;51.344;12.362;2022-07-29T02:02:53;100463.56;;;18.05
71897;BMP280;59767;51.344;12.362;2022-07-29T02:05:59;100463.75;;;17.97
71897;BMP280;59767;51.344;12.362;2022-07-29T02:09:06;100462.59;;;17.93
71897;BMP280;59767;51.344;12.362;2022-07-29T02:12:11;100463.16;;;17.89
71897;BMP280;59767;51.344;12.362;2022-07-29T02:15:17;100455.31;;;17.90
71897;BMP280;59767;51.344;12.362;2022-07-29T02:18:23;100464.16;;;17.88
71897;BMP280;59767;51.344;12.362;2022-07-29T02:21:30;100464.16;;;17.88
71897;BMP280;59767;51.344;12.362;2022-07-29T02:24:37;100456.09;;;17.91
71897;BMP280;59767;51.344;12.362;2022-07-29T02:27:43;100450.53;;;17.94
71897;BMP280;59767;51.344;12.362;2022-07-29T02:30:49;100444.88;;;17.92
71897;BMP280;59767;51.344;12.362;2022-07-29T02:33:55;100458.03;;;17.89
71897;BMP280;59767;51.344;12.362;2022-07-29T02:36:59;100456.47;;;17.88
71897;BMP280;59767;51.344;12.362;2022-07-29T02:40:05;100450.19;;;17.90
71897;BMP280;59767;51.344;12.362;2022-07-29T02:43:12;100455.47;;;17.89
71897;BMP280;59767;51.344;12.362;2022-07-29T02:46:27;100450.34;;;17.89
71897;BMP280;59767;51.344;12.362;2022-07-29T02:53:20;100456.88;;;17.85
71897;BMP280;59767;51.344;12.362;2022-07-29T02:56:27;100445.47;;;17.81
71897;BMP280;59767;51.344;12.362;2022-07-29T02:59:39;100443.06;;;17.79
71897;BMP280;59767;51.344;12.362;2022-07-29T03:02:45;100439.53;;;17.80
71897;BMP280;59767;51.344;12.362;2022-07-29T03:05:54;100441.69;;;17.83
71897;BMP280;59767;51.344;12.362;2022-07-29T03:08:59;100448.03;;;17.81
71897;BMP280;59767;51.344;12.362;2022-07-29T03:12:04;100442.09;;;17.74
71897;BMP280;59767;51.344;12.362;2022-07-29T03:15:09;100433.84;;;17.72
71897;BMP280;59767;51.344;12.362;2022-07-29T03:18:14;100429.91;;;17.76
71897;BMP280;59767;51.344;12.362;2022-07-29T03:21:18;100429.69;;;17.71
71897;BMP280;59767;51.344;12.362;2022-07-29T03:24:31;100438.19;;;17.71
71897;BMP280;59767;51.344;12.362;2022-07-29T03:27:35;100443.13;;;17.73
71897;BMP280;59767;51.344;12.362;2022-07-29T03:30:39;100442.53;;;17.71
71897;BMP280;59767;51.344;12.362;2022-07-29T03:33:47;100446.03;;;17.70
71897;BMP280;59767;51.344;12.362;2022-07-29T03:36:51;100433.84;;;17.65
71897;BMP280;59767;51.344;12.362;2022-07-29T03:39:57;100441.75;;;17.64
71897;BMP280;59767;51.344;12.362;2022-07-29T03:43:02;100431.47;;;17.57
71897;BMP280;59767;51.344;12.362;2022-07-29T03:46:09;100436.59;;;17.57
71897;BMP280;59767;51.344;12.362;2022-07-29T03:49:15;100437.59;;;17.56
71897;BMP280;59767;51.344;12.362;2022-07-29T03:52:21;100432.88;;;17.60
71897;BMP280;59767;51.344;12.362;2022-07-29T03:55:26;100445.09;;;17.51
71897;BMP280;59767;51.344;12.362;2022-07-29T03:58:32;100444.88;;;17.46
71897;BMP280;59767;51.344;12.362;2022-07-29T04:01:37;100447.25;;;17.48
71897;BMP280;59767;51.344;12.362;2022-07-29T04:04:42;100451.63;;;17.47
71897;BMP280;59767;51.344;12.362;2022-07-29T04:07:47;100449.81;;;17.48
71897;BMP280;59767;51.344;12.362;2022-07-29T04:10:52;100451.81;;;17.46
71897;BMP280;59767;51.344;12.362;2022-07-29T04:13:56;100453.19;;;17.42
71897;BMP280;59767;51.344;12.362;2022-07-29T04:17:01;100449.63;;;17.43
71897;BMP280;59767;51.344;12.362;2022-07-29T04:20:06;100450.63;;;17.48
71897;BMP280;59767;51.344;12.362;2022-07-29T04:23:10;100451.78;;;17.59
71897;BMP280;59767;51.344;12.362;2022-07-29T04:26:15;100452.38;;;17.61
71897;BMP280;59767;51.344;12.362;2022-07-29T04:29:19;100453.78;;;17.57
71897;BMP280;59767;51.344;12.362;2022-07-29T04:32:24;100457.50;;;17.61
71897;BMP280;59767;51.344;12.362;2022-07-29T04:35:30;100451.03;;;17.58
71897;BMP280;59767;51.344;12.362;2022-07-29T04:38:41;100463.63;;;17.60
71897;BMP280;59767;51.344;12.362;2022-07-29T04:41:45;100463.25;;;17.63
71897;BMP280;59767;51.344;12.362;2022-07-29T04:44:49;100453.00;;;17.63
71897;BMP280;59767;51.344;12.362;2022-07-29T04:47:54;100458.69;;;17.65
71897;BMP280;59767;51.344;12.362;2022-07-29T04:50:59;100464.00;;;17.70
71897;BMP280;59767;51.344;12.362;2022-07-29T04:54:03;100466.75;;;17.75
71897;BMP280;59767;51.344;12.362;2022-07-29T04:57:07;100465.59;;;17.77
71897;BMP280;59767;51.344;12.362;2022-07-29T05:00:12;100464.78;;;17.70
71897;BMP280;59767;51.344;12.362;2022-07-29T05:03:17;100466.59;;;17.63
71897;BMP280;59767;51.344;12.362;2022-07-29T05:06:20;100460.88;;;17.68
71897;BMP280;59767;51.344;12.362;2022-07-29T05:09:25;100455.13;;;17.66
71897;BMP280;59767;51.344;12.362;2022-07-29T05:12:29;100464.78;;;17.70
71897;BMP280;59767;51.344;12.362;2022-07-29T05:15:34;100459.66;;;17.77
71897;BMP280;59767;51.344;12.362;2022-07-29T05:18:38;100458.47;;;17.86
71897;BMP280;59767;51.344;12.362;2022-07-29T05:21:44;100464.78;;;17.90
71897;BMP280;59767;51.344;12.362;2022-07-29T05:24:48;100462.75;;;17.98
71897;BMP280;59767;51.344;12.362;2022-07-29T05:27:53;100464.16;;;18.01
71897;BMP280;59767;51.344;12.362;2022-07-29T05:30:56;100472.25;;;18.11
71897;BMP280;59767;51.344;12.362;2022-07-29T05:34:01;100462.91;;;18.23
71897;BMP280;59767;51.344;12.362;2022-07-29T05:37:05;100468.22;;;18.28
71897;BMP280;59767;51.344;12.362;2022-07-29T05:40:09;100466.81;;;18.32
71897;BMP280;59767;51.344;12.362;2022-07-29T05:43:13;100461.69;;;18.32
71897;BMP280;59767;51.344;12.362;2022-07-29T05:46:17;100460.09;;;18.37
71897;BMP280;59767;51.344;12.362;2022-07-29T05:49:22;100459.28;;;18.37
71897;BMP280;59767;51.344;12.362;2022-07-29T05:52:30;100460.66;;;18.46
71897;BMP280;59767;51.344;12.362;2022-07-29T05:55:34;100457.81;;;18.54
71897;BMP280;59767;51.344;12.362;2022-07-29T05:58:41;100457.91;;;18.47
71897;BMP280;59767;51.344;12.362;2022-07-29T06:01:45;100454.88;;;18.57
71897;BMP280;59767;51.344;12.362;2022-07-29T06:04:49;100456.25;;;18.53
71897;BMP280;59767;51.344;12.362;2022-07-29T06:07:53;100452.69;;;18.54
71897;BMP280;59767;51.344;12.362;2022-07-29T06:10:57;100453.47;;;18.61
71897;BMP280;59767;51.344;12.362;2022-07-29T06:14:02;100449.88;;;18.62
71897;BMP280;59767;51.344;12.362;2022-07-29T06:17:07;100442.06;;;18.57
71897;BMP280;59767;51.344;12.362;2022-07-29T06:20:11;100450.75;;;18.49
71897;BMP280;59767;51.344;12.362;2022-07-29T06:23:16;100448.78;;;18.45
71897;BMP280;59767;51.344;12.362;2022-07-29T06:26:20;100450.94;;;18.48
71897;BMP280;59767;51.344;12.362;2022-07-29T06:29:34;100450.28;;;18.59
71897;BMP280;59767;51.344;12.362;2022-07-29T06:32:38;100453.16;;;18.75
71897;BMP280;59767;51.344;12.362;2022-07-29T06:35:46;100449.41;;;18.78
71897;BMP280;59767;51.344;12.362;2022-07-29T06:38:57;100448.44;;;18.79
71897;BMP280;59767;51.344;12.362;2022-07-29T06:42:05;100454.28;;;18.86
71897;BMP280;59767;51.344;12.362;2022-07-29T06:45:10;100451.19;;;19.02
71897;BMP280;59767;51.344;12.362;2022-07-29T06:48:15;100450.81;;;19.05
71897;BMP280;59767;51.344;12.362;2022-07-29T06:51:20;100463.75;;;19.16
71897;BMP280;59767;51.344;12.362;2022-07-29T06:54:26;100457.16;;;19.27
71897;BMP280;59767;51.344;12.362;2022-07-29T06:57:30;100457.88;;;19.34
71897;BMP280;59767;51.344;12.362;2022-07-29T07:00:35;100466.22;;;19.53
71897;BMP280;59767;51.344;12.362;2022-07-29T07:03:39;100471.88;;;19.98
71897;BMP280;59767;51.344;12.362;2022-07-29T07:06:43;100465.78;;;20.10
71897;BMP280;59767;51.344;12.362;2022-07-29T07:09:47;100456.03;;;20.30
71897;BMP280;59767;51.344;12.362;2022-07-29T07:12:51;100457.94;;;20.64
71897;BMP280;59767;51.344;12.362;2022-07-29T07:15:55;100464.34;;;21.14
71897;BMP280;59767;51.344;12.362;2022-07-29T07:18:59;100453.06;;;21.66
71897;BMP280;59767;51.344;12.362;2022-07-29T07:22:03;100462.66;;;21.94
71897;BMP280;59767;51.344;12.362;2022-07-29T07:25:08;100464.66;;;22.20
71897;BMP280;59767;51.344;12.362;2022-07-29T07:28:12;100464.59;;;22.15
71897;BMP280;59767;51.344;12.362;2022-07-29T07:31:16;100464.75;;;21.97
71897;BMP280;59767;51.344;12.362;2022-07-29T07:34:21;100472.28;;;21.98
71897;BMP280;59767;51.344;12.362;2022-07-29T07:37:33;100475.41;;;22.00
71897;BMP280;59767;51.344;12.362;2022-07-29T07:40:37;100483.88;;;22.24
71897;BMP280;59767;51.344;12.362;2022-07-29T07:43:41;100475.50;;;22.77
71897;BMP280;59767;51.344;12.362;2022-07-29T07:46:45;100473.00;;;23.80
71897;BMP280;59767;51.344;12.362;2022-07-29T07:49:50;100474.00;;;24.58
71897;BMP280;59767;51.344;12.362;2022-07-29T07:52:55;100470.25;;;25.22
71897;BMP280;59767;51.344;12.362;2022-07-29T07:56:02;100468.66;;;26.12
71897;BMP280;59767;51.344;12.362;2022-07-29T07:59:15;100474.00;;;27.00
71897;BMP280;59767;51.344;12.362;2022-07-29T08:02:20;100466.22;;;26.95
71897;BMP280;59767;51.344;12.362;2022-07-29T08:05:24;100469.13;;;26.79
71897;BMP280;59767;51.344;12.362;2022-07-29T08:08:28;100482.81;;;28.01
71897;BMP280;59767;51.344;12.362;2022-07-29T08:11:32;100479.44;;;29.04
71897;BMP280;59767;51.344;12.362;2022-07-29T08:14:40;100482.00;;;29.65
71897;BMP280;59767;51.344;12.362;2022-07-29T08:17:45;100473.53;;;31.42
71897;BMP280;59767;51.344;12.362;2022-07-29T08:20:49;100455.41;;;30.21
71897;BMP280;59767;51.344;12.362;2022-07-29T08:23:53;100460.72;;;29.34
71897;BMP280;59767;51.344;12.362;2022-07-29T08:27:18;100470.34;;;29.39
71897;BMP280;59767;51.344;12.362;2022-07-29T08:30:43;100462.97;;;30.50
71897;BMP280;59767;51.344;12.362;2022-07-29T08:33:47;100464.84;;;30.98
71897;BMP280;59767;51.344;12.362;2022-07-29T08:36:51;100457.78;;;31.34
71897;BMP280;59767;51.344;12.362;2022-07-29T08:39:56;100451.66;;;31.25
71897;BMP280;59767;51.344;12.362;2022-07-29T08:43:07;100451.50;;;30.86
71897;BMP280;59767;51.344;12.362;2022-07-29T08:46:11;100454.31;;;30.90
71897;BMP280;59767;51.344;12.362;2022-07-29T08:49:17;100447.81;;;30.87
71897;BMP280;59767;51.344;12.362;2022-07-29T08:52:25;100449.59;;;31.57
71897;BMP280;59767;51.344;12.362;2022-07-29T08:55:29;100440.00;;;31.09
71897;BMP280;59767;51.344;12.362;2022-07-29T08:58:33;100436.31;;;30.75
71897;BMP280;59767;51.344;12.362;2022-07-29T09:01:43;100428.06;;;29.69
71897;BMP280;59767;51.344;12.362;2022-07-29T09:04:49;100438.50;;;29.55
71897;BMP280;59767;51.344;12.362;2022-07-29T09:07:53;100428.84;;;29.00
71897;BMP280;59767;51.344;12.362;2022-07-29T09:10:57;100431.66;;;29.04
71897;BMP280;59767;51.344;12.362;2022-07-29T09:14:06;100429.00;;;28.43
71897;BMP280;59767;51.344;12.362;2022-07-29T09:17:11;100434.88;;;28.77
71897;BMP280;59767;51.344;12.362;2022-07-29T09:20:18;100422.84;;;28.29
71897;BMP280;59767;51.344;12.362;2022-07-29T09:23:24;100428.56;;;28.08
71897;BMP280;59767;51.344;12.362;2022-07-29T09:26:29;100418.72;;;28.29
71897;BMP280;59767;51.344;12.362;2022-07-29T09:29:34;100421.78;;;28.35
71897;BMP280;59767;51.344;12.362;2022-07-29T09:32:56;100415.44;;;27.90
71897;BMP280;59767;51.344;12.362;2022-07-29T09:36:05;100407.34;;;27.91
71897;BMP280;59767;51.344;12.362;2022-07-29T09:39:10;100414.00;;;28.31
71897;BMP280;59767;51.344;12.362;2022-07-29T09:42:27;100418.28;;;28.22
71897;BMP280;59767;51.344;12.362;2022-07-29T09:45:33;100412.44;;;28.29
71897;BMP280;59767;51.344;12.362;2022-07-29T09:48:37;100410.22;;;28.18
71897;BMP280;59767;51.344;12.362;2022-07-29T09:51:41;100409.75;;;27.83
71897;BMP280;59767;51.344;12.362;2022-07-29T09:54:45;100406.44;;;27.39
71897;BMP280;59767;51.344;12.362;2022-07-29T09:57:49;100405.63;;;27.38
71897;BMP280;59767;51.344;12.362;2022-07-29T10:00:55;100398.41;;;27.25
71897;BMP280;59767;51.344;12.362;2022-07-29T10:04:00;100395.06;;;27.25
71897;BMP280;59767;51.344;12.362;2022-07-29T10:07:04;100391.97;;;27.13
71897;BMP280;59767;51.344;12.362;2022-07-29T10:10:09;100389.91;;;27.10
71897;BMP280;59767;51.344;12.362;2022-07-29T10:13:13;100391.44;;;27.16
71897;BMP280;59767;51.344;12.362;2022-07-29T10:16:19;100379.50;;;27.10
71897;BMP280;59767;51.344;12.362;2022-07-29T10:19:29;100379.06;;;26.93
71897;BMP280;59767;51.344;12.362;2022-07-29T10:22:34;100372.00;;;27.03
71897;BMP280;59767;51.344;12.362;2022-07-29T10:25:57;100377.41;;;27.12
71897;BMP280;59767;51.344;12.362;2022-07-29T10:29:01;100375.34;;;27.09
71897;BMP280;59767;51.344;12.362;2022-07-29T10:35:57;100370.03;;;27.24
71897;BMP280;59767;51.344;12.362;2022-07-29T10:39:27;100369.63;;;27.07
71897;BMP280;59767;51.344;12.362;2022-07-29T10:42:49;100373.75;;;27.13
71897;BMP280;59767;51.344;12.362;2022-07-29T10:45:57;100371.66;;;27.15
71897;BMP280;59767;51.344;12.362;2022-07-29T10:49:08;100371.13;;;27.23
71897;BMP280;59767;51.344;12.362;2022-07-29T10:52:13;100367.19;;;27.25
71897;BMP280;59767;51.344;12.362;2022-07-29T10:55:38;100367.00;;;27.12
71897;BMP280;59767;51.344;12.362;2022-07-29T11:02:41;100362.09;;;27.49
71897;BMP280;59767;51.344;12.362;2022-07-29T11:05:52;100356.34;;;27.52
71897;BMP280;59767;51.344;12.362;2022-07-29T11:09:17;100355.34;;;27.76
71897;BMP280;59767;51.344;12.362;2022-07-29T11:15:56;100361.34;;;28.05
71897;BMP280;59767;51.344;12.362;2022-07-29T11:22:36;100345.94;;;28.09
71897;BMP280;59767;51.344;12.362;2022-07-29T11:29:20;100351.69;;;28.06
71897;BMP280;59767;51.344;12.362;2022-07-29T11:32:36;100346.06;;;27.94
71897;BMP280;59767;51.344;12.362;2022-07-29T11:35:41;100343.41;;;27.75
71897;BMP280;59767;51.344;12.362;2022-07-29T11:39:26;100337.84;;;28.10
71897;BMP280;59767;51.344;12.362;2022-07-29T11:42:50;100338.63;;;28.34
71897;BMP280;59767;51.344;12.362;2022-07-29T11:45:55;100331.97;;;28.46
71897;BMP280;59767;51.344;12.362;2022-07-29T11:49:02;100329.06;;;28.48
71897;BMP280;59767;51.344;12.362;2022-07-29T11:52:11;100325.41;;;28.49
71897;BMP280;59767;51.344;12.362;2022-07-29T11:55:20;100328.28;;;28.66
71897;BMP280;59767;51.344;12.362;2022-07-29T11:58:35;100326.50;;;28.61
71897;BMP280;59767;51.344;12.362;2022-07-29T12:01:52;100322.69;;;28.35
71897;BMP280;59767;51.344;12.362;2022-07-29T12:05:17;100315.00;;;28.26
71897;BMP280;59767;51.344;12.362;2022-07-29T12:08:42;100305.19;;;28.36
71897;BMP280;59767;51.344;12.362;2022-07-29T12:11:48;100303.84;;;28.43
71897;BMP280;59767;51.344;12.362;2022-07-29T12:14:51;100304.88;;;28.42
71897;BMP280;59767;51.344;12.362;2022-07-29T12:17:56;100298.19;;;28.55
71897;BMP280;59767;51.344;12.362;2022-07-29T12:21:06;100298.19;;;28.73
71897;BMP280;59767;51.344;12.362;2022-07-29T12:24:15;100293.56;;;28.70
71897;BMP280;59767;51.344;12.362;2022-07-29T12:27:19;100289.31;;;28.74
71897;BMP280;59767;51.344;12.362;2022-07-29T12:30:39;100292.22;;;28.73
71897;BMP280;59767;51.344;12.362;2022-07-29T12:33:52;100285.13;;;28.78
71897;BMP280;59767;51.344;12.362;2022-07-29T12:36:56;100284.53;;;28.81
71897;BMP280;59767;51.344;12.362;2022-07-29T12:40:02;100283.03;;;28.75
71897;BMP280;59767;51.344;12.362;2022-07-29T12:43:16;100287.44;;;28.38
71897;BMP280;59767;51.344;12.362;2022-07-29T12:46:20;100279.25;;;28.26
71897;BMP280;59767;51.344;12.362;2022-07-29T12:49:25;100278.22;;;28.45
71897;BMP280;59767;51.344;12.362;2022-07-29T12:52:32;100282.19;;;28.43
71897;BMP280;59767;51.344;12.362;2022-07-29T12:55:42;100276.50;;;27.94
71897;BMP280;59767;51.344;12.362;2022-07-29T12:58:46;100276.38;;;27.81
71897;BMP280;59767;51.344;12.362;2022-07-29T13:01:54;100271.75;;;27.73
71897;BMP280;59767;51.344;12.362;2022-07-29T13:05:00;100271.84;;;27.68
71897;BMP280;59767;51.344;12.362;2022-07-29T13:08:15;100274.34;;;27.78
71897;BMP280;59767;51.344;12.362;2022-07-29T13:11:39;100279.63;;;28.20
71897;BMP280;59767;51.344;12.362;2022-07-29T13:14:49;100268.69;;;28.36
71897;BMP280;59767;51.344;12.362;2022-07-29T13:17:53;100266.69;;;28.51
71897;BMP280;59767;51.344;12.362;2022-07-29T13:21:10;100263.44;;;28.59
71897;BMP280;59767;51.344;12.362;2022-07-29T13:24:15;100273.41;;;28.57
71897;BMP280;59767;51.344;12.362;2022-07-29T13:27:24;100262.09;;;28.62
71897;BMP280;59767;51.344;12.362;2022-07-29T13:30:29;100270.72;;;28.62
71897;BMP280;59767;51.344;12.362;2022-07-29T13:33:33;100256.94;;;28.75
71897;BMP280;59767;51.344;12.362;2022-07-29T13:36:37;100261.88;;;28.95
71897;BMP280;59767;51.344;12.362;2022-07-29T13:39:44;100258.66;;;28.66
71897;BMP280;59767;51.344;12.362;2022-07-29T13:42:56;100256.34;;;28.46
71897;BMP280;59767;51.344;12.362;2022-07-29T13:46:00;100250.78;;;28.11
71897;BMP280;59767;51.344;12.362;2022-07-29T13:49:04;100248.19;;;28.29
71897;BMP280;59767;51.344;12.362;2022-07-29T13:52:09;100241.59;;;28.55
71897;BMP280;59767;51.344;12.362;2022-07-29T13:55:13;100251.72;;;28.75
71897;BMP280;59767;51.344;12.362;2022-07-29T13:58:18;100255.13;;;28.57
71897;BMP280;59767;51.344;12.362;2022-07-29T14:01:22;100243.22;;;28.51
71897;BMP280;59767;51.344;12.362;2022-07-29T14:04:26;100244.22;;;28.55
71897;BMP280;59767;51.344;12.362;2022-07-29T14:07:31;100240.31;;;28.34
71897;BMP280;59767;51.344;12.362;2022-07-29T14:10:35;100239.81;;;28.33
71897;BMP280;59767;51.344;12.362;2022-07-29T14:13:39;100229.69;;;28.31
71897;BMP280;59767;51.344;12.362;2022-07-29T14:16:43;100230.03;;;28.25
71897;BMP280;59767;51.344;12.362;2022-07-29T14:19:54;100228.91;;;28.31
71897;BMP280;59767;51.344;12.362;2022-07-29T14:22:58;100230.44;;;28.32
71897;BMP280;59767;51.344;12.362;2022-07-29T14:26:03;100229.75;;;28.44
71897;BMP280;59767;51.344;12.362;2022-07-29T14:29:11;100218.66;;;28.16
71897;BMP280;59767;51.344;12.362;2022-07-29T14:32:15;100221.31;;;28.11
71897;BMP280;59767;51.344;12.362;2022-07-29T14:35:19;100211.25;;;28.04
71897;BMP280;59767;51.344;12.362;2022-07-29T14:38:23;100207.75;;;28.14
71897;BMP280;59767;51.344;12.362;2022-07-29T14:41:29;100212.97;;;28.14
71897;BMP280;59767;51.344;12.362;2022-07-29T14:44:33;100213.94;;;28.18
71897;BMP280;59767;51.344;12.362;2022-07-29T14:47:38;100219.44;;;28.16
71897;BMP280;59767;51.344;12.362;2022-07-29T14:50:43;100216.44;;;28.28
71897;BMP280;59767;51.344;12.362;2022-07-29T14:53:47;100219.91;;;28.23
71897;BMP280;59767;51.344;12.362;2022-07-29T14:56:51;100221.56;;;28.14
71897;BMP280;59767;51.344;12.362;2022-07-29T14:59:58;100226.06;;;28.27
71897;BMP280;59767;51.344;12.362;2022-07-29T15:03:03;100227.53;;;28.33
71897;BMP280;59767;51.344;12.362;2022-07-29T15:06:08;100226.41;;;28.39
71897;BMP280;59767;51.344;12.362;2022-07-29T15:09:12;100226.22;;;28.35
71897;BMP280;59767;51.344;12.362;2022-07-29T15:12:16;100221.75;;;28.36
71897;BMP280;59767;51.344;12.362;2022-07-29T15:15:20;100224.31;;;28.41
71897;BMP280;59767;51.344;12.362;2022-07-29T15:18:24;100218.19;;;28.50
71897;BMP280;59767;51.344;12.362;2022-07-29T15:21:29;100222.78;;;28.40
71897;BMP280;59767;51.344;12.362;2022-07-29T15:24:33;100221.44;;;28.42
71897;BMP280;59767;51.344;12.362;2022-07-29T15:27:38;100220.88;;;28.45
71897;BMP280;59767;51.344;12.362;2022-07-29T15:30:42;100212.41;;;28.35
71897;BMP280;59767;51.344;12.362;2022-07-29T15:33:46;100210.66;;;28.31
71897;BMP280;59767;51.344;12.362;2022-07-29T15:36:51;100205.38;;;28.35
71897;BMP280;59767;51.344;12.362;2022-07-29T15:39:56;100195.28;;;28.47
71897;BMP280;59767;51.344;12.362;2022-07-29T15:43:03;100205.22;;;28.45
71897;BMP280;59767;51.344;12.362;2022-07-29T15:46:16;100205.72;;;28.47
71897;BMP280;59767;51.344;12.362;2022-07-29T15:49:40;100226.53;;;28.34
71897;BMP280;59767;51.344;12.362;2022-07-29T15:52:51;100248.94;;;28.12
71897;BMP280;59767;51.344;12.362;2022-07-29T15:55:55;100246.75;;;27.48
71897;BMP280;59767;51.344;12.362;2022-07-29T15:59:00;100250.91;;;27.16
71897;BMP280;59767;51.344;12.362;2022-07-29T16:02:04;100239.78;;;26.67
71897;BMP280;59767;51.344;12.362;2022-07-29T16:05:09;100247.66;;;26.57
71897;BMP280;59767;51.344;12.362;2022-07-29T16:08:13;100242.88;;;26.11
71897;BMP280;59767;51.344;12.362;2022-07-29T16:11:17;100251.47;;;26.01
71897;BMP280;59767;51.344;12.362;2022-07-29T16:14:21;100243.72;;;25.86
71897;BMP280;59767;51.344;12.362;2022-07-29T16:17:26;100244.28;;;25.68
71897;BMP280;59767;51.344;12.362;2022-07-29T16:20:30;100236.50;;;25.58
71897;BMP280;59767;51.344;12.362;2022-07-29T16:23:34;100240.38;;;25.71
71897;BMP280;59767;51.344;12.362;2022-07-29T16:26:38;100243.47;;;25.63
71897;BMP280;59767;51.344;12.362;2022-07-29T16:29:43;100236.75;;;25.52
71897;BMP280;59767;51.344;12.362;2022-07-29T16:32:49;100240.66;;;25.54
71897;BMP280;59767;51.344;12.362;2022-07-29T16:35:53;100234.16;;;25.42
71897;BMP280;59767;51.344;12.362;2022-07-29T16:38:58;100223.25;;;25.50
71897;BMP280;59767;51.344;12.362;2022-07-29T16:42:02;100219.63;;;25.56
71897;BMP280;59767;51.344;12.362;2022-07-29T16:45:09;100216.53;;;25.49
71897;BMP280;59767;51.344;12.362;2022-07-29T16:48:14;100214.69;;;25.49
71897;BMP280;59767;51.344;12.362;2022-07-29T16:51:21;100216.00;;;25.52
71897;BMP280;59767;51.344;12.362;2022-07-29T16:54:25;100215.97;;;25.57
71897;BMP280;59767;51.344;12.362;2022-07-29T16:57:29;100213.41;;;25.62
71897;BMP280;59767;51.344;12.362;2022-07-29T17:00:33;100212.06;;;25.69
71897;BMP280;59767;51.344;12.362;2022-07-29T17:03:37;100219.06;;;25.74
71897;BMP280;59767;51.344;12.362;2022-07-29T17:07:03;100221.66;;;25.79
71897;BMP280;59767;51.344;12.362;2022-07-29T17:10:09;100224.25;;;25.84
71897;BMP280;59767;51.344;12.362;2022-07-29T17:13:13;100216.19;;;25.90
71897;BMP280;59767;51.344;12.362;2022-07-29T17:16:18;100208.38;;;25.95
71897;BMP280;59767;51.344;12.362;2022-07-29T17:19:28;100205.78;;;25.95
71897;BMP280;59767;51.344;12.362;2022-07-29T17:22:32;100200.84;;;25.99
71897;BMP280;59767;51.344;12.362;2022-07-29T17:25:36;100200.88;;;25.94
71897;BMP280;59767;51.344;12.362;2022-07-29T17:28:41;100210.22;;;25.90
71897;BMP280;59767;51.344;12.362;2022-07-29T17:31:45;100212.28;;;25.88
71897;BMP280;59767;51.344;12.362;2022-07-29T17:34:49;100202.47;;;25.80
71897;BMP280;59767;51.344;12.362;2022-07-29T17:37:53;100219.59;;;25.71
71897;BMP280;59767;51.344;12.362;2022-07-29T17:40:57;100209.47;;;25.59
71897;BMP280;59767;51.344;12.362;2022-07-29T17:44:02;100209.75;;;25.53
71897;BMP280;59767;51.344;12.362;2022-07-29T17:47:06;100216.53;;;25.49
71897;BMP280;59767;51.344;12.362;2022-07-29T17:50:19;100208.19;;;25.47